Главная страница
METAR-TAF:

METAR-TAF

Аэропорты :

Leesburg, Виргиния, США

широта: 39-05N, долгота: 077-34W, высота над уровнем моря: 119 м

Текущие метеонаблюдения

Эта сводка был подготовлена 29 минут назад, в 19:35 UTC
Ветер 14 Узел от северо-западный с порывами до 27 Узел
Температура 12°C
Влажность 58%
Давление 1007 hPa
Видимость: 16.1 км
Сплошная облачность на высоте 4400 фута

METAR: KJYO 171935Z AUTO 32014G27KT 10SM OVC044 12/04 A2973 RMK AO2

Время: 16:04 (20:04 UTC)


TAF: отсутствует

Метеонаблюдения и прогнозы для более 4000 аэропортов (сводки METAR и TAF).

Имеющиеся станции представлены на карте желтыми и красными точками.

Чтобы увидеть название станции, наведите на нее мышь.

Затем щелкните, чтобы увидеть метеонаблюдения и метеопрогнозы.

Управление картой: чтобы увеличить масштаб, щелкните зеленые кнопки с черным крестиком; чтобы уменьшить масштаб, щелкните зеленую кнопку с тире; для просмотра соседних карт щелкайте зеленые стрелки.


METAR-TAF: